Time;durP1;ratioP1;P1;durP2;ratioP2;P2;SDS_P1;SDS_P2;PMS_P1;PMS_P2;Temp;Humidity;BMP_temperature;BMP_pressure;BME280_temperature;BME280_humidity;BME280_pressure;Samples;Min_cycle;Max_cycle;Signal;HPM_P1;HPM_P2
2024/01/20 00:02:12;;;;;;;7.70;3.90;;;0.30;99.90;;;;;;5007061;28;20256;-71
2024/01/20 00:04:39;;;;;;;5.47;4.07;;;0.20;99.90;;;;;;5005721;28;20213;-71
2024/01/20 00:07:06;;;;;;;4.70;3.47;;;0.30;99.90;;;;;;5004853;28;20209;-71
2024/01/20 00:09:33;;;;;;;6.30;3.60;;;0.30;99.90;;;;;;5005976;28;20679;-71
2024/01/20 00:12:00;;;;;;;6.27;3.83;;;0.30;99.90;;;;;;5010504;28;20301;-72
2024/01/20 00:14:27;;;;;;;5.37;3.53;;;0.20;99.90;;;;;;5007056;28;20213;-71
2024/01/20 00:16:54;;;;;;;6.47;3.63;;;0.20;99.90;;;;;;5006606;28;20206;-72
2024/01/20 00:19:22;;;;;;;6.10;3.90;;;0.20;99.90;;;;;;5007554;28;20264;-72
2024/01/20 00:21:49;;;;;;;4.27;3.77;;;0.20;99.90;;;;;;5006910;28;20602;-72
2024/01/20 00:24:16;;;;;;;7.73;4.40;;;0.20;99.90;;;;;;5007026;28;20209;-72
2024/01/20 00:26:43;;;;;;;5.17;3.87;;;0.20;99.90;;;;;;4999551;28;20301;-72
2024/01/20 00:29:09;;;;;;;4.33;3.80;;;0.20;99.90;;;;;;4994722;28;20296;-72
2024/01/20 00:31:37;;;;;;;5.70;3.77;;;0.20;99.90;;;;;;5022088;28;20299;-74
2024/01/20 00:34:04;;;;;;;6.43;3.50;;;0.20;99.90;;;;;;5027098;28;20299;-72
2024/01/20 00:36:32;;;;;;;7.70;4.07;;;0.20;99.90;;;;;;5023708;28;20248;-72
2024/01/20 00:38:59;;;;;;;3.80;3.50;;;0.20;99.90;;;;;;5007302;28;20233;-72
2024/01/20 00:41:26;;;;;;;6.33;3.87;;;0.10;99.90;;;;;;5010573;28;20351;-73
2024/01/20 00:43:53;;;;;;;5.43;3.43;;;0.10;99.90;;;;;;5026120;28;20209;-73
2024/01/20 00:46:21;;;;;;;6.50;3.67;;;0.10;99.90;;;;;;5017976;28;20213;-73
2024/01/20 00:48:48;;;;;;;4.87;3.80;;;0.10;99.90;;;;;;5007135;28;20205;-73
2024/01/20 00:51:14;;;;;;;6.57;4.20;;;0.10;99.90;;;;;;5006345;28;20321;-73
2024/01/20 00:53:42;;;;;;;4.97;3.67;;;0.20;99.90;;;;;;5007431;28;20328;-73
2024/01/20 00:56:09;;;;;;;5.73;3.87;;;0.20;99.90;;;;;;5010478;28;20240;-73
2024/01/20 00:58:36;;;;;;;5.53;4.17;;;0.20;99.90;;;;;;5010298;28;20300;-73
2024/01/20 01:01:03;;;;;;;5.80;4.00;;;0.20;99.90;;;;;;5010210;28;20263;-73
2024/01/20 01:03:30;;;;;;;5.13;4.13;;;0.10;99.90;;;;;;5010424;28;20312;-71
2024/01/20 01:05:56;;;;;;;7.03;4.10;;;0.10;99.90;;;;;;5010602;28;20686;-71
2024/01/20 01:08:23;;;;;;;6.37;3.70;;;0.10;99.90;;;;;;5023414;28;20358;-72
2024/01/20 01:10:54;;;;;;;5.67;4.03;;;0.10;99.90;;;;;;4990571;28;20289;-72
2024/01/20 01:13:21;;;;;;;6.50;3.80;;;0.10;99.90;;;;;;4990678;28;20241;-71
2024/01/20 01:15:48;;;;;;;5.13;3.73;;;0.10;99.90;;;;;;5007480;28;20271;-71
2024/01/20 01:18:15;;;;;;;7.23;4.13;;;0.10;99.90;;;;;;5030023;28;20614;-72
2024/01/20 01:20:42;;;;;;;6.93;4.40;;;0.00;99.90;;;;;;5027243;28;20709;-71
2024/01/20 01:23:09;;;;;;;5.90;4.23;;;0.10;99.90;;;;;;5009483;28;20320;-72
2024/01/20 01:25:36;;;;;;;5.80;3.90;;;0.10;99.90;;;;;;5009807;28;20304;-71
2024/01/20 01:28:04;;;;;;;5.23;3.83;;;0.10;99.90;;;;;;5010424;28;20206;-72
2024/01/20 01:30:31;;;;;;;6.23;4.47;;;0.00;99.90;;;;;;5009684;28;20285;-72
2024/01/20 01:32:58;;;;;;;5.90;4.20;;;0.00;99.90;;;;;;5009754;28;20206;-72
2024/01/20 01:35:25;;;;;;;6.00;4.30;;;0.00;99.90;;;;;;5017344;28;20295;-72
2024/01/20 01:37:52;;;;;;;5.17;4.33;;;0.00;99.90;;;;;;5029321;28;20292;-71
2024/01/20 01:40:19;;;;;;;5.00;4.50;;;0.00;99.90;;;;;;5013354;28;20300;-72
2024/01/20 01:42:46;;;;;;;6.77;4.27;;;0.00;99.90;;;;;;5009670;28;20225;-72
2024/01/20 01:45:14;;;;;;;4.43;4.00;;;0.00;99.90;;;;;;5009654;28;20300;-72
2024/01/20 01:47:41;;;;;;;7.93;4.33;;;0.00;99.90;;;;;;5009334;28;20304;-71
2024/01/20 01:50:09;;;;;;;6.23;4.60;;;0.00;99.90;;;;;;5009438;28;20292;-71
2024/01/20 01:52:36;;;;;;;7.30;4.40;;;0.00;99.90;;;;;;5026406;28;20677;-71
2024/01/20 01:55:03;;;;;;;6.40;4.67;;;0.00;99.90;;;;;;5029042;28;20830;-72
2024/01/20 01:57:30;;;;;;;6.53;4.97;;;0.00;99.90;;;;;;5028778;28;20746;-72
2024/01/20 01:59:59;;;;;;;5.00;4.50;;;0.00;99.90;;;;;;5029237;28;20216;-71
2024/01/20 02:02:27;;;;;;;10.47;4.30;;;0.00;99.90;;;;;;5022949;28;20332;-72
2024/01/20 02:04:54;;;;;;;6.07;4.17;;;0.00;99.90;;;;;;5009286;28;20300;-72
2024/01/20 02:07:20;;;;;;;5.87;4.50;;;0.00;99.90;;;;;;5008621;28;20252;-72
2024/01/20 02:09:47;;;;;;;9.00;4.93;;;0.00;99.90;;;;;;5014809;28;20297;-71
2024/01/20 02:12:15;;;;;;;7.67;5.03;;;0.00;99.90;;;;;;5009081;28;20253;-71
2024/01/20 02:14:43;;;;;;;9.20;5.20;;;0.00;99.90;;;;;;5008629;28;20288;-72
2024/01/20 02:17:10;;;;;;;6.63;5.13;;;0.00;99.90;;;;;;5008569;28;20256;-72
2024/01/20 02:19:39;;;;;;;7.70;4.60;;;0.00;99.90;;;;;;5008702;28;20205;-71
2024/01/20 02:22:11;;;;;;;6.37;4.97;;;0.10;99.90;;;;;;5008369;28;20620;-72
2024/01/20 02:24:40;;;;;;;6.27;4.63;;;0.00;99.90;;;;;;5008572;28;20198;-73
2024/01/20 02:27:09;;;;;;;7.13;4.90;;;0.10;99.90;;;;;;5026344;28;20848;-73
2024/01/20 02:29:38;;;;;;;10.67;5.13;;;0.10;99.90;;;;;;5020468;28;20304;-73
2024/01/20 02:32:05;;;;;;;7.73;4.93;;;0.10;99.90;;;;;;5019510;28;20316;-73
2024/01/20 02:34:32;;;;;;;6.73;5.20;;;0.10;99.90;;;;;;5028278;28;20288;-73
2024/01/20 02:36:59;;;;;;;7.13;5.30;;;0.10;99.90;;;;;;5027643;28;20200;-73
2024/01/20 02:39:27;;;;;;;7.87;5.10;;;0.10;99.90;;;;;;4997686;28;20241;-73
2024/01/20 02:41:54;;;;;;;7.73;5.40;;;0.20;99.90;;;;;;5007789;28;20755;-73
2024/01/20 02:44:23;;;;;;;6.27;4.87;;;0.20;99.90;;;;;;5008165;28;21007;-72
2024/01/20 02:46:52;;;;;;;8.30;5.63;;;0.20;99.90;;;;;;5008449;28;20244;-72
2024/01/20 02:49:18;;;;;;;7.73;5.00;;;0.20;99.90;;;;;;5015076;28;20879;-72
2024/01/20 02:51:45;;;;;;;8.87;5.53;;;0.20;99.90;;;;;;5027235;28;20319;-73
2024/01/20 02:54:12;;;;;;;8.90;4.87;;;0.20;99.90;;;;;;5027613;28;20786;-73
2024/01/20 02:56:40;;;;;;;6.90;5.70;;;0.20;99.90;;;;;;5027636;28;20323;-72
2024/01/20 02:59:07;;;;;;;8.33;5.47;;;0.20;99.90;;;;;;5018263;28;20300;-73
2024/01/20 03:01:34;;;;;;;7.43;5.00;;;0.20;99.90;;;;;;5014579;28;20584;-73
2024/01/20 03:04:01;;;;;;;7.50;5.10;;;0.10;99.90;;;;;;5027704;28;20277;-72
2024/01/20 03:06:28;;;;;;;6.67;5.30;;;0.20;99.90;;;;;;5027073;28;20215;-73
2024/01/20 03:08:55;;;;;;;7.97;5.07;;;0.10;99.90;;;;;;5022968;28;20245;-72
2024/01/20 03:11:22;;;;;;;6.43;5.50;;;0.20;99.90;;;;;;5007802;28;20534;-72
2024/01/20 03:13:50;;;;;;;8.67;5.50;;;0.20;99.90;;;;;;5010423;28;20639;-73
2024/01/20 03:16:17;;;;;;;8.23;5.57;;;0.20;99.90;;;;;;5007180;28;20676;-72
2024/01/20 03:18:44;;;;;;;6.10;5.17;;;0.20;99.90;;;;;;5007730;28;20302;-72
2024/01/20 03:21:11;;;;;;;5.93;5.33;;;0.20;99.90;;;;;;5007785;28;20293;-72
2024/01/20 03:23:38;;;;;;;5.70;4.73;;;0.20;99.90;;;;;;5007298;28;20325;-72
2024/01/20 03:26:10;;;;;;;5.80;5.20;;;0.20;99.90;;;;;;5008479;28;20289;-72
2024/01/20 03:28:37;;;;;;;8.43;5.77;;;0.20;99.90;;;;;;5020439;28;20205;-72
2024/01/20 03:31:05;;;;;;;6.63;4.77;;;0.20;99.90;;;;;;5027324;28;20266;-72
2024/01/20 03:33:32;;;;;;;6.50;5.73;;;0.20;99.90;;;;;;5027285;28;20262;-72
2024/01/20 03:35:59;;;;;;;6.57;4.77;;;0.20;99.90;;;;;;5027436;28;20299;-72
2024/01/20 03:38:26;;;;;;;8.47;5.43;;;0.20;99.90;;;;;;5025553;28;20236;-72
2024/01/20 03:40:53;;;;;;;7.00;5.60;;;0.20;99.90;;;;;;5007325;28;20213;-72
2024/01/20 03:43:19;;;;;;;8.97;5.37;;;0.20;99.90;;;;;;5007058;28;20249;-72
2024/01/20 03:45:47;;;;;;;7.77;5.47;;;0.20;99.90;;;;;;5011813;28;20670;-72
2024/01/20 03:48:15;;;;;;;7.23;5.77;;;0.20;99.90;;;;;;5026772;28;20244;-72
2024/01/20 03:50:42;;;;;;;7.47;5.63;;;0.20;99.90;;;;;;5009654;28;20316;-72
2024/01/20 03:53:10;;;;;;;8.43;5.40;;;0.30;99.90;;;;;;5006651;28;20230;-72
2024/01/20 03:55:37;;;;;;;8.47;5.50;;;0.30;99.90;;;;;;5007141;28;20209;-72
2024/01/20 03:58:04;;;;;;;8.80;5.77;;;0.30;99.90;;;;;;5006995;28;20248;-72
2024/01/20 04:00:31;;;;;;;6.17;5.47;;;0.40;99.90;;;;;;5007289;28;20652;-72
2024/01/20 04:02:58;;;;;;;7.17;5.27;;;0.40;99.90;;;;;;5025625;28;20307;-71
2024/01/20 04:05:26;;;;;;;7.53;5.50;;;0.40;99.90;;;;;;5020471;28;20300;-71
2024/01/20 04:07:53;;;;;;;7.33;5.43;;;0.50;99.90;;;;;;4993622;28;20602;-71
2024/01/20 04:10:20;;;;;;;7.30;5.47;;;0.40;99.90;;;;;;5006551;28;20244;-70
2024/01/20 04:12:47;;;;;;;7.63;5.63;;;0.50;99.90;;;;;;5006742;28;20582;-72
2024/01/20 04:15:14;;;;;;;6.90;5.33;;;0.40;99.90;;;;;;5009090;28;20260;-72
2024/01/20 04:17:41;;;;;;;6.20;5.17;;;0.50;99.90;;;;;;5006825;28;20209;-72
2024/01/20 04:20:09;;;;;;;8.50;5.10;;;0.40;99.90;;;;;;5006821;28;20721;-73
2024/01/20 04:22:37;;;;;;;8.07;5.33;;;0.40;99.90;;;;;;5006608;28;20608;-73
2024/01/20 04:25:05;;;;;;;6.57;5.63;;;0.40;99.90;;;;;;5011026;28;20240;-72
2024/01/20 04:27:33;;;;;;;7.47;5.53;;;0.40;99.90;;;;;;5001267;28;20287;-72
2024/01/20 04:30:00;;;;;;;6.63;5.57;;;0.40;99.90;;;;;;5009781;28;20634;-72
2024/01/20 04:32:27;;;;;;;6.23;5.13;;;0.40;99.90;;;;;;5010499;28;20237;-72
2024/01/20 04:34:54;;;;;;;6.87;5.37;;;0.40;99.90;;;;;;5011015;28;20241;-72
2024/01/20 04:37:21;;;;;;;7.00;5.57;;;0.30;99.90;;;;;;5017199;28;20282;-72
2024/01/20 04:39:49;;;;;;;9.30;5.53;;;0.30;99.90;;;;;;5018044;28;20300;-72
2024/01/20 04:42:16;;;;;;;8.47;5.70;;;0.30;99.90;;;;;;5010551;28;20248;-72
2024/01/20 04:44:43;;;;;;;10.03;5.90;;;0.40;99.90;;;;;;5010693;28;20641;-72
2024/01/20 04:47:10;;;;;;;7.67;5.93;;;0.40;99.90;;;;;;5010683;28;20300;-72
2024/01/20 04:49:36;;;;;;;6.33;5.47;;;0.40;99.90;;;;;;5017571;28;20202;-72
2024/01/20 04:52:04;;;;;;;7.97;5.93;;;0.40;99.90;;;;;;5010369;28;20398;-72
2024/01/20 04:54:31;;;;;;;7.67;5.77;;;0.40;99.90;;;;;;5010402;28;20296;-72
2024/01/20 04:56:59;;;;;;;7.50;5.90;;;0.40;99.90;;;;;;5010564;28;20587;-73
2024/01/20 04:59:26;;;;;;;6.90;5.30;;;0.30;99.90;;;;;;5010390;28;20245;-72
2024/01/20 05:01:53;;;;;;;9.60;5.60;;;0.30;99.90;;;;;;5010880;28;20263;-72
2024/01/20 05:04:20;;;;;;;8.70;5.87;;;0.30;99.90;;;;;;5010485;28;20237;-72
2024/01/20 05:06:48;;;;;;;8.40;5.93;;;0.30;99.90;;;;;;5010220;28;20252;-72
2024/01/20 05:09:15;;;;;;;7.90;5.23;;;0.30;99.90;;;;;;5010530;28;20222;-73
2024/01/20 05:11:42;;;;;;;7.03;6.20;;;0.30;99.90;;;;;;5010196;28;20486;-72
2024/01/20 05:14:10;;;;;;;7.17;5.67;;;0.40;99.90;;;;;;5020641;28;20209;-72
2024/01/20 05:16:37;;;;;;;6.83;5.67;;;0.40;99.90;;;;;;5014391;28;20205;-72
2024/01/20 05:19:04;;;;;;;7.23;6.00;;;0.50;99.90;;;;;;5010272;28;20304;-72
2024/01/20 05:21:31;;;;;;;7.87;4.73;;;0.50;99.90;;;;;;5009866;28;20563;-72
2024/01/20 05:23:58;;;;;;;7.77;5.93;;;0.60;99.90;;;;;;5009673;28;20233;-72
2024/01/20 05:26:25;;;;;;;8.30;6.10;;;0.60;99.90;;;;;;5024536;28;20295;-72
2024/01/20 05:28:52;;;;;;;10.93;6.00;;;0.60;99.90;;;;;;5029569;28;20213;-72
2024/01/20 05:31:20;;;;;;;7.97;5.63;;;0.70;99.90;;;;;;5029553;28;20208;-72
2024/01/20 05:33:47;;;;;;;8.03;5.97;;;0.70;99.90;;;;;;5029651;28;20239;-72
2024/01/20 05:36:14;;;;;;;8.60;6.17;;;0.70;99.90;;;;;;5029543;28;20295;-73
2024/01/20 05:38:41;;;;;;;9.50;6.40;;;0.70;99.90;;;;;;5025251;28;20679;-72
2024/01/20 05:41:11;;;;;;;9.00;6.50;;;0.70;99.90;;;;;;5027754;28;20287;-73
2024/01/20 05:43:37;;;;;;;7.47;5.67;;;0.70;99.90;;;;;;5029196;28;20320;-73
2024/01/20 05:46:07;;;;;;;12.07;5.93;;;0.70;99.90;;;;;;5029396;28;20303;-72
2024/01/20 05:48:36;;;;;;;9.77;6.07;;;0.70;99.90;;;;;;5029034;28;20671;-72
2024/01/20 05:51:03;;;;;;;8.70;5.90;;;0.70;99.90;;;;;;5010022;28;20684;-73
2024/01/20 05:53:30;;;;;;;7.23;6.43;;;0.70;99.90;;;;;;5008646;28;20751;-72
2024/01/20 05:55:57;;;;;;;7.50;5.93;;;0.70;99.90;;;;;;5009457;28;20297;-72
2024/01/20 05:58:24;;;;;;;7.83;5.93;;;0.70;99.90;;;;;;5008839;28;20217;-72
2024/01/20 06:00:51;;;;;;;7.33;6.00;;;0.70;99.90;;;;;;5010424;28;20256;-71
2024/01/20 06:03:18;;;;;;;7.30;5.83;;;0.70;99.90;;;;;;5008471;28;20245;-71
2024/01/20 06:05:46;;;;;;;7.07;5.80;;;0.60;99.90;;;;;;5009150;28;20649;-71
2024/01/20 06:08:13;;;;;;;8.80;5.87;;;0.60;99.90;;;;;;5020969;28;20228;-71
2024/01/20 06:10:40;;;;;;;8.23;6.10;;;0.60;99.90;;;;;;5025925;28;20292;-71
2024/01/20 06:13:09;;;;;;;7.47;6.47;;;0.50;99.90;;;;;;5028772;28;20301;-71
2024/01/20 06:15:36;;;;;;;8.43;6.17;;;0.50;99.90;;;;;;4998411;28;20210;-71
2024/01/20 06:18:04;;;;;;;10.30;6.40;;;0.40;99.90;;;;;;5025890;28;20613;-71
2024/01/20 06:20:31;;;;;;;7.00;5.70;;;0.30;99.90;;;;;;5013224;28;20205;-72
2024/01/20 06:22:59;;;;;;;8.60;6.03;;;0.30;99.90;;;;;;5008655;28;20304;-71
2024/01/20 06:25:26;;;;;;;8.00;6.37;;;0.30;99.90;;;;;;5008628;28;20237;-71
2024/01/20 06:27:53;;;;;;;7.93;6.47;;;0.30;99.90;;;;;;5008789;28;20643;-71
2024/01/20 06:30:20;;;;;;;8.80;5.90;;;0.30;99.90;;;;;;5020329;28;20659;-71
2024/01/20 06:32:47;;;;;;;8.50;6.10;;;0.30;99.90;;;;;;5028340;28;20223;-72
2024/01/20 06:35:14;;;;;;;9.77;5.97;;;0.30;99.90;;;;;;5028447;28;20307;-72
2024/01/20 06:37:41;;;;;;;8.53;6.43;;;0.30;99.90;;;;;;5028426;28;20208;-71
2024/01/20 06:40:10;;;;;;;8.90;6.27;;;0.30;99.90;;;;;;5011050;28;20292;-72
2024/01/20 06:42:37;;;;;;;9.63;6.20;;;0.30;99.90;;;;;;5008209;28;20656;-71
2024/01/20 06:45:04;;;;;;;8.53;6.13;;;0.30;99.90;;;;;;5008316;28;20225;-72
2024/01/20 06:47:31;;;;;;;8.93;6.13;;;0.30;99.90;;;;;;5008436;28;20296;-72
2024/01/20 06:49:58;;;;;;;9.17;7.37;;;0.40;99.90;;;;;;5022687;28;21038;-71
2024/01/20 06:52:25;;;;;;;7.50;6.13;;;0.40;99.90;;;;;;5026579;28;20237;-71
2024/01/20 06:54:52;;;;;;;8.27;6.43;;;0.40;99.90;;;;;;5023710;28;20280;-71
2024/01/20 06:57:20;;;;;;;8.57;6.47;;;0.40;99.90;;;;;;5027911;28;20213;-72
2024/01/20 06:59:47;;;;;;;7.67;6.40;;;0.50;99.90;;;;;;5015736;28;20217;-71
2024/01/20 07:02:14;;;;;;;8.67;6.30;;;0.50;99.90;;;;;;5023151;28;20262;-72
2024/01/20 07:04:41;;;;;;;8.23;6.10;;;0.50;99.90;;;;;;5027063;28;20275;-72
2024/01/20 07:07:08;;;;;;;7.93;6.30;;;0.50;99.90;;;;;;5017884;28;20245;-72
2024/01/20 07:09:39;;;;;;;7.73;6.53;;;0.60;99.90;;;;;;5008088;28;20209;-72
2024/01/20 07:12:07;;;;;;;8.53;6.33;;;0.60;99.90;;;;;;4992913;28;20213;-70
2024/01/20 07:14:35;;;;;;;8.93;6.37;;;0.60;99.90;;;;;;5027583;28;20255;-69
2024/01/20 07:17:02;;;;;;;7.77;5.80;;;0.60;99.90;;;;;;5027595;28;20237;-69
2024/01/20 07:19:29;;;;;;;12.30;7.13;;;0.60;99.90;;;;;;5027259;28;20208;-69
2024/01/20 07:21:56;;;;;;;8.67;6.80;;;0.60;99.90;;;;;;5013068;28;20197;-69
2024/01/20 07:24:23;;;;;;;8.97;6.97;;;0.60;99.90;;;;;;5007692;28;20229;-71
2024/01/20 07:26:50;;;;;;;8.33;6.97;;;0.60;99.90;;;;;;5011117;28;20197;-74
2024/01/20 07:29:17;;;;;;;9.47;6.50;;;0.70;99.90;;;;;;5027470;28;20252;-74
2024/01/20 07:31:45;;;;;;;10.13;6.90;;;0.70;99.90;;;;;;5027485;28;20215;-72
2024/01/20 07:34:12;;;;;;;10.70;6.23;;;0.70;99.90;;;;;;5026321;28;20258;-71
2024/01/20 07:36:39;;;;;;;7.20;6.47;;;0.70;99.90;;;;;;5026679;28;20323;-72
2024/01/20 07:39:06;;;;;;;9.70;6.57;;;0.80;99.90;;;;;;5025631;28;20215;-72
2024/01/20 07:41:33;;;;;;;9.73;6.47;;;0.80;99.90;;;;;;5026999;28;20572;-72
2024/01/20 07:44:00;;;;;;;8.57;6.57;;;0.80;99.90;;;;;;5027027;28;20232;-72
2024/01/20 07:46:27;;;;;;;8.50;6.80;;;0.90;99.90;;;;;;5027152;28;20205;-72
2024/01/20 07:48:55;;;;;;;8.73;6.00;;;0.90;99.90;;;;;;5026845;28;20215;-72
2024/01/20 07:51:22;;;;;;;11.40;7.07;;;0.80;99.90;;;;;;5021336;28;20312;-72
2024/01/20 07:53:49;;;;;;;10.97;6.67;;;0.90;99.90;;;;;;5007465;28;20229;-72
2024/01/20 07:56:16;;;;;;;10.83;6.20;;;0.90;99.90;;;;;;5009429;28;20296;-72
2024/01/20 07:58:43;;;;;;;8.77;6.43;;;0.90;99.90;;;;;;5006830;28;20578;-71
2024/01/20 08:01:10;;;;;;;9.27;7.00;;;0.80;99.90;;;;;;5007464;28;20297;-72
2024/01/20 08:03:36;;;;;;;7.17;6.37;;;0.80;99.90;;;;;;5011756;28;20229;-72
2024/01/20 08:06:05;;;;;;;9.97;7.17;;;0.90;99.90;;;;;;5027142;28;20661;-72
2024/01/20 08:08:32;;;;;;;9.77;6.33;;;1.00;99.90;;;;;;4992202;28;20297;-72
2024/01/20 08:10:59;;;;;;;7.70;6.50;;;0.80;99.90;;;;;;5007214;28;20241;-72
2024/01/20 08:13:26;;;;;;;8.27;6.20;;;0.80;99.90;;;;;;5007197;28;20624;-71
2024/01/20 08:15:53;;;;;;;7.30;6.53;;;0.80;99.90;;;;;;5019168;28;20295;-71
2024/01/20 08:18:20;;;;;;;6.40;5.77;;;0.90;99.90;;;;;;5026682;28;20238;-71
2024/01/20 08:20:46;;;;;;;6.77;6.10;;;0.90;99.90;;;;;;5026391;28;20524;-71
2024/01/20 08:23:15;;;;;;;7.03;6.20;;;0.90;99.90;;;;;;5006982;28;20646;-71
2024/01/20 08:25:42;;;;;;;10.03;6.97;;;0.90;99.90;;;;;;5015977;28;20315;-72
2024/01/20 08:28:09;;;;;;;9.23;6.73;;;0.90;99.90;;;;;;5026870;28;20308;-72
2024/01/20 08:30:35;;;;;;;8.30;6.73;;;0.90;99.90;;;;;;5026824;28;20296;-72
2024/01/20 08:33:02;;;;;;;11.07;5.80;;;0.90;99.90;;;;;;5025088;28;20656;-72
2024/01/20 08:35:29;;;;;;;10.13;6.93;;;0.90;99.90;;;;;;4986923;28;20742;-72
2024/01/20 08:37:56;;;;;;;9.47;6.30;;;1.00;99.90;;;;;;4987213;28;20305;-72
2024/01/20 08:40:24;;;;;;;7.27;5.97;;;1.00;99.90;;;;;;5003831;28;20739;-73
2024/01/20 08:42:51;;;;;;;8.33;5.90;;;1.00;99.90;;;;;;5007571;28;20297;-73
2024/01/20 08:45:18;;;;;;;7.67;6.17;;;1.00;99.90;;;;;;5006864;28;20846;-72
2024/01/20 08:47:45;;;;;;;8.27;6.20;;;1.00;99.90;;;;;;5006493;28;20237;-72
2024/01/20 08:50:12;;;;;;;7.87;5.90;;;1.10;99.90;;;;;;5006446;28;20257;-72
2024/01/20 08:52:39;;;;;;;8.40;6.20;;;1.10;99.90;;;;;;5005862;28;20243;-72
2024/01/20 08:55:07;;;;;;;6.30;5.70;;;1.10;99.90;;;;;;5006987;28;20204;-73
2024/01/20 08:57:36;;;;;;;8.67;6.30;;;1.10;99.90;;;;;;5006844;28;20666;-72
2024/01/20 09:00:04;;;;;;;10.23;7.00;;;1.10;99.90;;;;;;5006925;28;20460;-73
2024/01/20 09:02:31;;;;;;;7.30;6.27;;;1.20;99.90;;;;;;5006770;28;20210;-72
2024/01/20 09:04:58;;;;;;;6.83;5.73;;;1.20;99.90;;;;;;4994638;28;20243;-72
2024/01/20 09:07:25;;;;;;;7.17;5.77;;;1.20;99.90;;;;;;5008261;28;20245;-72
2024/01/20 09:09:52;;;;;;;9.03;6.10;;;1.20;99.90;;;;;;5007198;28;20246;-73
2024/01/20 09:12:19;;;;;;;10.70;6.50;;;1.20;99.90;;;;;;5006254;28;20698;-72
2024/01/20 09:14:48;;;;;;;7.70;5.50;;;1.30;99.90;;;;;;5007896;28;20213;-73
2024/01/20 09:17:15;;;;;;;7.80;6.17;;;1.30;99.90;;;;;;5011032;28;20237;-73
2024/01/20 09:19:42;;;;;;;6.83;6.10;;;1.30;99.90;;;;;;5012038;28;20209;-73
2024/01/20 09:22:09;;;;;;;7.17;6.40;;;1.30;99.90;;;;;;5029517;28;20208;-73
2024/01/20 09:24:35;;;;;;;7.00;5.43;;;1.30;99.90;;;;;;5029783;28;20327;-73
2024/01/20 09:27:02;;;;;;;9.23;6.57;;;1.30;99.90;;;;;;5029877;28;20247;-72
2024/01/20 09:29:29;;;;;;;7.77;6.23;;;1.30;99.90;;;;;;5025400;28;20208;-72
2024/01/20 09:31:58;;;;;;;12.57;7.20;;;1.40;99.90;;;;;;5010096;28;20293;-72
2024/01/20 09:34:24;;;;;;;7.97;5.73;;;1.30;99.90;;;;;;5009654;28;20305;-73
2024/01/20 09:36:51;;;;;;;7.03;6.27;;;1.40;99.90;;;;;;5009673;28;20292;-73
2024/01/20 09:39:19;;;;;;;6.07;5.47;;;1.40;99.90;;;;;;5018360;28;20324;-73
2024/01/20 09:41:47;;;;;;;7.40;6.40;;;1.40;99.90;;;;;;5021522;28;20212;-71
2024/01/20 09:44:16;;;;;;;13.33;9.93;;;1.40;99.90;;;;;;5013022;28;20333;-72
2024/01/20 09:46:43;;;;;;;10.07;7.37;;;1.50;99.90;;;;;;5009154;28;20213;-72
2024/01/20 09:49:12;;;;;;;17.90;12.63;;;1.50;99.90;;;;;;5010686;28;20206;-72
2024/01/20 09:51:46;;;;;;;11.10;8.80;;;1.50;99.90;;;;;;5008993;28;20312;-73
2024/01/20 09:54:16;;;;;;;12.60;8.87;;;1.50;99.90;;;;;;5009107;28;20207;-71
2024/01/20 09:56:43;;;;;;;9.87;7.73;;;1.60;99.90;;;;;;5008442;28;20219;-71
2024/01/20 09:59:12;;;;;;;9.07;5.87;;;1.60;99.90;;;;;;5008812;28;20305;-71
2024/01/20 10:01:41;;;;;;;7.33;5.37;;;1.70;99.90;;;;;;5015879;28;20240;-71
2024/01/20 10:04:11;;;;;;;7.97;6.27;;;1.70;99.90;;;;;;5024080;28;20223;-71
2024/01/20 10:06:38;;;;;;;6.33;5.47;;;1.70;99.90;;;;;;5026234;28;20320;-72
2024/01/20 10:09:06;;;;;;;7.13;5.40;;;1.70;99.90;;;;;;5013348;28;20239;-71
2024/01/20 10:11:33;;;;;;;6.20;5.60;;;1.70;99.90;;;;;;5007205;28;20228;-71
2024/01/20 10:14:00;;;;;;;6.70;5.67;;;1.80;99.90;;;;;;5007206;28;20917;-71
2024/01/20 10:16:27;;;;;;;6.80;5.57;;;1.80;99.90;;;;;;5024976;28;21141;-71
2024/01/20 10:18:53;;;;;;;7.00;5.30;;;1.80;99.90;;;;;;5027061;28;20670;-71
2024/01/20 10:21:24;;;;;;;5.80;5.20;;;1.80;99.90;;;;;;5012995;28;20213;-71
2024/01/20 10:23:51;;;;;;;5.93;5.33;;;1.90;99.90;;;;;;5007200;28;20216;-71
2024/01/20 10:26:18;;;;;;;6.57;5.47;;;1.80;99.90;;;;;;5005243;28;20340;-71
2024/01/20 10:28:46;;;;;;;8.90;5.70;;;1.90;99.90;;;;;;5026300;28;20742;-71
2024/01/20 10:31:13;;;;;;;6.90;5.40;;;1.80;99.90;;;;;;5026767;28;20236;-72
2024/01/20 10:33:40;;;;;;;8.33;6.03;;;1.80;99.90;;;;;;5026381;28;20306;-72
2024/01/20 10:36:10;;;;;;;10.30;6.37;;;1.90;99.90;;;;;;5026971;28;20231;-71
2024/01/20 10:38:39;;;;;;;5.97;5.30;;;1.90;99.90;;;;;;5023208;28;20228;-71
2024/01/20 10:41:08;;;;;;;7.80;5.40;;;1.90;99.90;;;;;;5006768;28;20201;-71
2024/01/20 10:43:42;;;;;;;7.57;5.70;;;2.00;99.90;;;;;;5006064;28;20205;-71
2024/01/20 10:46:17;;;;;;;5.93;5.10;;;2.00;99.90;;;;;;5006472;28;20342;-71
2024/01/20 10:48:50;;;;;;;7.57;5.73;;;2.10;99.90;;;;;;5006142;28;20649;-71
2024/01/20 10:51:21;;;;;;;6.87;5.13;;;2.20;99.90;;;;;;5015753;28;20256;-71
2024/01/20 10:53:50;;;;;;;10.20;6.17;;;2.30;99.90;;;;;;5025764;28;20199;-71
2024/01/20 10:56:18;;;;;;;6.27;5.30;;;2.40;99.90;;;;;;5014666;28;20304;-71
2024/01/20 10:58:51;;;;;;;7.93;5.80;;;2.40;99.90;;;;;;5020273;28;20295;-71
2024/01/20 11:01:20;;;;;;;11.43;6.37;;;2.40;99.90;;;;;;5006932;28;20285;-71
2024/01/20 11:03:47;;;;;;;7.87;5.77;;;2.40;99.90;;;;;;5006529;28;20288;-72
2024/01/20 11:06:19;;;;;;;8.00;5.60;;;2.40;99.90;;;;;;5005810;28;20320;-70
2024/01/20 11:08:51;;;;;;;8.53;5.43;;;2.40;99.90;;;;;;5003772;28;20556;-71
2024/01/20 11:11:19;;;;;;;8.90;5.97;;;2.50;99.90;;;;;;5007012;28;20197;-71
2024/01/20 11:13:46;;;;;;;5.97;5.20;;;2.40;99.90;;;;;;5007489;28;20205;-71
2024/01/20 11:16:20;;;;;;;7.07;6.37;;;2.40;99.90;;;;;;5023993;28;20207;-72
2024/01/20 11:18:47;;;;;;;7.10;5.70;;;2.40;99.90;;;;;;5027025;28;20203;-72
2024/01/20 11:21:16;;;;;;;8.17;5.67;;;2.40;99.90;;;;;;5026885;28;20209;-72
2024/01/20 11:23:46;;;;;;;6.53;5.83;;;2.50;99.90;;;;;;5026067;28;20212;-72
2024/01/20 11:26:14;;;;;;;9.07;5.93;;;2.70;99.90;;;;;;5026385;28;20228;-71
2024/01/20 11:28:44;;;;;;;8.63;5.87;;;2.80;99.90;;;;;;5017492;28;20694;-72
2024/01/20 11:31:20;;;;;;;8.27;5.63;;;2.90;99.90;;;;;;5007765;28;20252;-72
2024/01/20 11:33:47;;;;;;;7.80;5.60;;;3.10;99.90;;;;;;5007010;28;20740;-72
2024/01/20 11:36:15;;;;;;;5.87;5.23;;;3.20;99.90;;;;;;5007062;28;20875;-71
2024/01/20 11:38:44;;;;;;;9.77;6.03;;;3.30;99.90;;;;;;5010455;28;20300;-71
2024/01/20 11:41:10;;;;;;;7.67;5.27;;;3.40;99.90;;;;;;5006811;28;20664;-72
2024/01/20 11:43:45;;;;;;;6.90;5.83;;;3.60;99.90;;;;;;5007030;28;20324;-72
2024/01/20 11:46:12;;;;;;;6.63;5.90;;;3.80;99.90;;;;;;5007237;28;20265;-71
2024/01/20 11:48:39;;;;;;;8.00;5.43;;;3.80;99.90;;;;;;5006996;28;20205;-71
2024/01/20 11:51:06;;;;;;;6.83;5.67;;;3.80;99.90;;;;;;5015707;28;20248;-72
2024/01/20 11:53:33;;;;;;;8.70;5.83;;;3.80;99.90;;;;;;4993546;28;20345;-71
2024/01/20 11:56:03;;;;;;;6.73;5.67;;;3.90;99.90;;;;;;5026701;28;20219;-72
2024/01/20 11:58:31;;;;;;;9.83;5.73;;;4.10;99.90;;;;;;5026516;28;20701;-71
2024/01/20 12:01:01;;;;;;;7.70;5.30;;;4.10;99.90;;;;;;5026742;28;20220;-72
2024/01/20 12:03:28;;;;;;;8.03;5.50;;;4.20;99.90;;;;;;5017392;28;20226;-71
2024/01/20 12:05:56;;;;;;;7.57;5.90;;;4.20;99.90;;;;;;5006941;28;20316;-72
2024/01/20 12:08:23;;;;;;;11.83;5.70;;;4.30;99.90;;;;;;5006534;28;20515;-71
2024/01/20 12:10:50;;;;;;;7.33;5.13;;;4.30;99.90;;;;;;5006953;28;20582;-72
2024/01/20 12:13:18;;;;;;;8.23;5.47;;;4.40;99.90;;;;;;5006982;28;20281;-72
2024/01/20 12:15:49;;;;;;;7.27;5.10;;;4.30;99.90;;;;;;5006836;28;20233;-72
2024/01/20 12:18:18;;;;;;;8.30;5.33;;;4.30;99.90;;;;;;5005210;28;20224;-72
2024/01/20 12:20:46;;;;;;;5.87;4.57;;;4.30;99.90;;;;;;5004777;28;20328;-72
2024/01/20 12:23:18;;;;;;;7.43;5.13;;;4.30;99.90;;;;;;5004935;28;20297;-71
2024/01/20 12:25:45;;;;;;;6.00;5.43;;;4.40;99.90;;;;;;5004784;28;20809;-72
2024/01/20 12:28:12;;;;;;;6.47;4.90;;;4.40;99.90;;;;;;5016491;28;20751;-71
2024/01/20 12:30:39;;;;;;;6.67;4.90;;;4.40;99.90;;;;;;5023583;28;20745;-71
2024/01/20 12:33:06;;;;;;;8.23;4.73;;;4.50;99.90;;;;;;5024439;28;20275;-71
2024/01/20 12:35:35;;;;;;;6.87;4.83;;;4.50;99.90;;;;;;5023229;28;20225;-71
2024/01/20 12:38:02;;;;;;;7.60;4.87;;;4.40;99.90;;;;;;5004310;28;20256;-72
2024/01/20 12:40:30;;;;;;;6.67;5.23;;;4.50;99.90;;;;;;5018793;28;20296;-71
2024/01/20 12:42:57;;;;;;;5.67;4.67;;;4.50;99.90;;;;;;5024510;28;20682;-71
2024/01/20 12:45:24;;;;;;;6.80;4.93;;;4.60;99.90;;;;;;5008692;28;20641;-71
2024/01/20 12:47:53;;;;;;;6.20;4.70;;;4.70;99.90;;;;;;5004535;28;20698;-72
2024/01/20 12:50:20;;;;;;;5.13;4.63;;;4.80;99.90;;;;;;5007456;28;20320;-72
2024/01/20 12:52:48;;;;;;;5.10;4.47;;;4.80;99.90;;;;;;5008093;28;20240;-72
2024/01/20 12:55:15;;;;;;;5.27;4.33;;;4.90;99.90;;;;;;5008532;28;20332;-71
2024/01/20 12:57:42;;;;;;;6.10;4.70;;;5.10;99.90;;;;;;5008710;28;20308;-74